createdAt,value
2022-09-18T00:01:37.181Z,6.53
2022-09-18T00:04:08.039Z,6.47
2022-09-18T00:06:38.502Z,6.65
2022-09-18T00:09:10.086Z,6.80
2022-09-18T00:11:41.438Z,6.91
2022-09-18T00:14:11.646Z,6.94
2022-09-18T00:16:40.791Z,6.96
2022-09-18T00:19:09.615Z,6.87
2022-09-18T00:21:40.037Z,6.86
2022-09-18T00:24:07.802Z,6.78
2022-09-18T00:26:35.889Z,6.77
2022-09-18T00:29:04.799Z,6.83
2022-09-18T00:31:36.039Z,6.86
2022-09-18T00:34:08.060Z,6.76
2022-09-18T00:36:37.764Z,6.82
2022-09-18T00:39:07.309Z,6.87
2022-09-18T00:41:38.774Z,6.93
2022-09-18T00:44:39.932Z,6.71
2022-09-18T00:47:10.249Z,6.65
2022-09-18T00:50:01.429Z,6.55
2022-09-18T00:52:44.890Z,6.38
2022-09-18T00:55:14.207Z,6.40
2022-09-18T00:57:49.852Z,6.44
2022-09-18T01:00:18.333Z,6.28
2022-09-18T01:02:48.932Z,6.16
2022-09-18T01:05:24.043Z,6.10
2022-09-18T01:08:04.384Z,6.17
2022-09-18T01:11:00.845Z,6.17
2022-09-18T01:14:07.261Z,6.24
2022-09-18T01:16:42.856Z,6.17
2022-09-18T01:20:01.787Z,6.23
2022-09-18T01:23:03.896Z,6.50
2022-09-18T01:25:52.168Z,6.64
2022-09-18T01:28:24.520Z,6.47
2022-09-18T01:30:57.686Z,6.36
2022-09-18T01:33:57.397Z,6.29
2022-09-18T01:36:30.662Z,6.44
2022-09-18T01:39:07.053Z,6.52
2022-09-18T01:41:37.671Z,6.59
2022-09-18T01:44:15.888Z,6.44
2022-09-18T01:46:46.165Z,6.44
2022-09-18T01:49:23.891Z,6.41
2022-09-18T01:51:55.328Z,6.67
2022-09-18T01:54:27.529Z,6.78
2022-09-18T01:57:04.156Z,6.93
2022-09-18T02:00:02.874Z,6.89
2022-09-18T02:02:41.511Z,6.71
2022-09-18T02:05:18.891Z,6.75
2022-09-18T02:07:57.378Z,7.00
2022-09-18T02:10:29.251Z,7.07
2022-09-18T02:12:58.246Z,7.22
2022-09-18T02:15:30.713Z,7.19
2022-09-18T02:18:08.791Z,7.30
2022-09-18T02:20:38.717Z,7.19
2022-09-18T02:23:08.683Z,7.23
2022-09-18T02:25:46.252Z,7.29
2022-09-18T02:28:18.173Z,7.35
2022-09-18T02:30:46.234Z,7.27
2022-09-18T02:33:43.627Z,7.30
2022-09-18T02:36:29.581Z,7.31
2022-09-18T02:39:04.911Z,7.30
2022-09-18T02:41:49.314Z,7.26
2022-09-18T02:44:28.002Z,7.18
2022-09-18T02:47:23.585Z,7.20
2022-09-18T02:49:59.555Z,7.16
2022-09-18T02:52:42.331Z,7.07
2022-09-18T02:55:19.987Z,7.05
2022-09-18T02:57:55.627Z,7.04
2022-09-18T03:00:24.854Z,7.02
2022-09-18T03:02:56.950Z,6.92
2022-09-18T03:05:27.296Z,6.85
2022-09-18T03:07:55.197Z,6.80
2022-09-18T03:10:22.915Z,6.63
2022-09-18T03:12:51.402Z,6.57
2022-09-18T03:15:19.162Z,6.61
2022-09-18T03:17:46.716Z,6.57
2022-09-18T03:20:14.753Z,6.59
2022-09-18T03:22:42.316Z,6.56
2022-09-18T03:25:13.250Z,6.52
2022-09-18T03:27:43.211Z,6.49
2022-09-18T03:30:12.125Z,6.49
2022-09-18T03:32:39.911Z,6.42
2022-09-18T03:35:08.596Z,6.21
2022-09-18T03:37:36.273Z,6.35
2022-09-18T03:40:04.869Z,6.36
2022-09-18T03:42:33.016Z,6.32
2022-09-18T03:45:01.065Z,6.26
2022-09-18T03:47:31.852Z,6.10
2022-09-18T03:50:02.249Z,6.18
2022-09-18T03:52:31.083Z,6.43
2022-09-18T03:54:59.299Z,6.25
2022-09-18T03:57:31.944Z,6.45
2022-09-18T03:59:59.790Z,6.63
2022-09-18T04:02:27.780Z,6.65
2022-09-18T04:05:07.291Z,6.75
2022-09-18T04:07:45.471Z,6.88
2022-09-18T04:10:15.929Z,7.05
2022-09-18T04:12:48.067Z,7.17
2022-09-18T04:15:16.901Z,7.21
2022-09-18T04:17:44.531Z,7.30
2022-09-18T04:20:12.342Z,7.36
2022-09-18T04:22:45.007Z,7.44
2022-09-18T04:25:12.750Z,7.48
2022-09-18T04:27:41.093Z,7.50
2022-09-18T04:30:09.492Z,7.57
2022-09-18T04:32:39.257Z,7.63
2022-09-18T04:35:10.822Z,7.82
2022-09-18T04:37:38.879Z,7.81
2022-09-18T04:40:07.982Z,7.92
2022-09-18T04:42:37.946Z,8.02
2022-09-18T04:45:06.948Z,8.08
2022-09-18T04:47:35.305Z,8.17
2022-09-18T04:50:09.150Z,8.18
2022-09-18T04:52:57.115Z,8.28
2022-09-18T04:55:25.983Z,8.38
2022-09-18T04:57:55.827Z,8.39
2022-09-18T05:00:23.668Z,8.53
2022-09-18T05:02:51.610Z,8.59
2022-09-18T05:05:21.512Z,8.61
2022-09-18T05:07:49.728Z,8.77
2022-09-18T05:10:21.760Z,8.90
2022-09-18T05:15:39.408Z,9.06
2022-09-18T05:18:11.944Z,9.14
2022-09-18T05:20:40.185Z,9.28
2022-09-18T05:23:09.086Z,9.43
2022-09-18T05:25:37.325Z,9.56
2022-09-18T05:28:06.505Z,9.75
2022-09-18T05:30:35.766Z,9.90
2022-09-18T05:33:07.656Z,10.05
2022-09-18T05:35:40.022Z,10.16
2022-09-18T05:38:09.181Z,10.25
2022-09-18T05:40:40.013Z,10.41
2022-09-18T05:43:09.885Z,10.52
2022-09-18T05:45:39.524Z,10.61
2022-09-18T05:48:08.368Z,10.72
2022-09-18T05:50:39.145Z,10.81
2022-09-18T05:53:10.701Z,10.91
2022-09-18T05:55:41.965Z,11.05
2022-09-18T05:58:16.333Z,11.13
2022-09-18T06:00:47.828Z,11.34
2022-09-18T06:03:17.320Z,11.55
2022-09-18T06:05:53.024Z,11.91
2022-09-18T06:08:22.220Z,12.15
2022-09-18T06:10:50.504Z,12.26
2022-09-18T06:13:19.263Z,12.40
2022-09-18T06:15:50.501Z,12.60
2022-09-18T06:18:21.219Z,12.84
2022-09-18T06:20:54.692Z,13.05
2022-09-18T06:23:26.030Z,13.12
2022-09-18T06:25:58.653Z,13.20
2022-09-18T06:28:26.884Z,13.36
2022-09-18T06:30:55.611Z,13.50
2022-09-18T06:33:23.285Z,13.66
2022-09-18T06:38:37.995Z,13.66
2022-09-18T06:41:06.022Z,14.03
2022-09-18T06:46:27.996Z,14.14
2022-09-18T06:48:55.797Z,14.39
2022-09-18T06:51:23.845Z,14.25
2022-09-18T06:53:53.673Z,14.15
2022-09-18T06:56:21.336Z,14.25
2022-09-18T06:58:52.046Z,14.07
2022-09-18T07:01:20.080Z,14.48
2022-09-18T07:03:51.294Z,14.61
2022-09-18T07:06:22.864Z,14.71
2022-09-18T07:08:53.686Z,14.79
2022-09-18T07:11:22.078Z,14.77
2022-09-18T07:13:50.309Z,14.63
2022-09-18T07:16:18.392Z,14.70
2022-09-18T07:18:48.971Z,14.85
2022-09-18T07:21:21.276Z,14.83
2022-09-18T07:23:48.990Z,14.79
2022-09-18T07:26:17.081Z,14.90
2022-09-18T07:28:46.834Z,15.01
2022-09-18T07:31:15.144Z,15.03
2022-09-18T07:33:44.190Z,14.67
2022-09-18T07:36:16.178Z,14.82
2022-09-18T07:38:44.331Z,14.54
2022-09-18T07:41:12.398Z,14.22
2022-09-18T07:43:40.293Z,14.61
2022-09-18T07:46:08.502Z,14.49
2022-09-18T07:48:39.087Z,14.35
2022-09-18T07:51:07.138Z,14.25
2022-09-18T07:53:37.771Z,13.85
2022-09-18T07:56:11.908Z,13.85
2022-09-18T07:58:40.498Z,13.89
2022-09-18T08:01:10.681Z,13.85
2022-09-18T08:03:41.425Z,14.02
2022-09-18T08:06:26.802Z,13.87
2022-09-18T08:08:55.373Z,13.93
2022-09-18T08:11:23.293Z,14.19
2022-09-18T08:13:53.938Z,14.54
2022-09-18T08:16:22.626Z,14.93
2022-09-18T08:18:58.753Z,15.09
2022-09-18T08:21:32.590Z,15.08
2022-09-18T08:24:00.966Z,15.22
2022-09-18T08:26:30.574Z,15.04
2022-09-18T08:28:58.244Z,15.08
2022-09-18T08:31:26.858Z,15.01
2022-09-18T08:33:55.505Z,14.64
2022-09-18T08:36:23.311Z,14.73
2022-09-18T08:38:56.263Z,14.75
2022-09-18T08:41:47.534Z,14.51
2022-09-18T08:44:40.165Z,14.69
2022-09-18T08:47:30.994Z,14.48
2022-09-18T08:50:05.751Z,14.27
2022-09-18T08:52:41.403Z,14.30
2022-09-18T08:55:30.645Z,14.69
2022-09-18T08:58:11.833Z,14.50
2022-09-18T09:00:55.732Z,14.66
2022-09-18T09:03:23.872Z,14.62
2022-09-18T09:06:35.842Z,14.50
2022-09-18T09:09:14.238Z,14.73
2022-09-18T09:12:28.095Z,14.83
2022-09-18T09:15:21.856Z,14.76
2022-09-18T09:18:07.443Z,14.87
2022-09-18T09:20:55.300Z,14.97
2022-09-18T09:23:25.943Z,15.00
2022-09-18T09:26:11.873Z,14.75
2022-09-18T09:28:48.933Z,14.71
2022-09-18T09:31:20.994Z,14.70
2022-09-18T09:34:18.677Z,14.72
2022-09-18T09:36:54.401Z,14.74
2022-09-18T09:39:36.577Z,14.69
2022-09-18T09:42:18.547Z,14.72
2022-09-18T09:44:55.502Z,14.76
2022-09-18T09:47:32.007Z,14.59
2022-09-18T09:50:06.153Z,14.30
2022-09-18T09:52:37.336Z,14.46
2022-09-18T09:55:32.348Z,14.47
2022-09-18T09:58:10.698Z,14.29
2022-09-18T10:01:04.378Z,14.05
2022-09-18T10:03:47.536Z,14.21
2022-09-18T10:06:37.261Z,13.90
2022-09-18T10:09:13.260Z,13.90
2022-09-18T10:11:45.601Z,13.81
2022-09-18T10:14:20.174Z,13.77
2022-09-18T10:16:51.905Z,13.72
2022-09-18T10:19:23.237Z,14.03
2022-09-18T10:21:54.343Z,13.93
2022-09-18T10:24:57.285Z,13.72
2022-09-18T10:27:31.600Z,13.63
2022-09-18T10:30:00.316Z,13.70
2022-09-18T10:32:38.329Z,13.44
2022-09-18T10:35:43.794Z,13.58
2022-09-18T10:38:32.561Z,13.34
2022-09-18T10:44:28.446Z,13.28
2022-09-18T10:47:27.600Z,13.08
2022-09-18T10:49:59.154Z,13.07
2022-09-18T10:52:34.701Z,12.98
2022-09-18T10:55:09.417Z,13.09
2022-09-18T10:57:44.080Z,12.99
2022-09-18T11:00:20.573Z,13.13
2022-09-18T11:02:54.931Z,13.30
2022-09-18T11:05:32.563Z,12.97
2022-09-18T11:08:23.960Z,12.93
2022-09-18T11:11:02.133Z,12.77
2022-09-18T11:13:32.745Z,12.81
2022-09-18T11:16:03.468Z,12.86
2022-09-18T11:18:33.276Z,12.85
2022-09-18T11:21:05.546Z,12.88
2022-09-18T11:23:35.905Z,12.80
2022-09-18T11:26:11.926Z,12.72
2022-09-18T11:28:41.516Z,12.71
2022-09-18T11:31:19.494Z,12.50
2022-09-18T11:33:57.715Z,12.66
2022-09-18T11:36:30.379Z,12.69
2022-09-18T11:39:02.051Z,12.67
2022-09-18T11:41:40.298Z,12.61
2022-09-18T11:44:18.431Z,12.80
2022-09-18T11:47:03.020Z,12.56
2022-09-18T11:49:36.384Z,12.50
2022-09-18T11:52:06.270Z,12.67
2022-09-18T11:54:47.132Z,12.40
2022-09-18T11:57:38.133Z,12.65
2022-09-18T12:00:11.710Z,12.63
2022-09-18T12:02:52.883Z,12.57
2022-09-18T12:05:29.845Z,12.38
2022-09-18T12:08:19.624Z,12.56
2022-09-18T12:11:16.172Z,12.65
2022-09-18T12:14:04.409Z,12.51
2022-09-18T12:16:53.534Z,12.59
2022-09-18T12:19:48.653Z,12.57
2022-09-18T12:22:30.171Z,12.65
2022-09-18T12:24:59.117Z,12.62
2022-09-18T12:27:31.703Z,12.56
2022-09-18T12:30:19.861Z,12.47
2022-09-18T12:33:08.007Z,12.51
2022-09-18T12:35:57.646Z,12.64
2022-09-18T12:38:42.579Z,12.53
2022-09-18T12:41:26.900Z,12.35
2022-09-18T12:44:03.751Z,12.22
2022-09-18T12:46:46.679Z,12.28
2022-09-18T12:49:36.459Z,12.30
2022-09-18T12:52:27.644Z,12.36
2022-09-18T12:55:21.014Z,12.31
2022-09-18T12:58:26.440Z,12.40
2022-09-18T13:00:56.376Z,12.32
2022-09-18T13:03:37.179Z,12.29
2022-09-18T13:06:12.324Z,12.28
2022-09-18T13:08:52.463Z,12.35
2022-09-18T13:11:40.206Z,12.41
2022-09-18T13:14:17.736Z,12.28
2022-09-18T13:16:55.018Z,12.37
2022-09-18T13:19:32.750Z,12.41
2022-09-18T13:24:55.452Z,12.35
2022-09-18T13:27:26.217Z,12.11
2022-09-18T13:29:53.929Z,12.22
2022-09-18T13:32:23.152Z,12.24
2022-09-18T13:38:14.886Z,12.19
2022-09-18T13:40:58.814Z,12.19
2022-09-18T13:43:45.955Z,12.02
2022-09-18T13:46:40.071Z,12.01
2022-09-18T13:49:40.239Z,12.11
2022-09-18T13:52:33.563Z,12.23
2022-09-18T13:55:13.570Z,12.31
2022-09-18T13:57:42.304Z,12.14
2022-09-18T14:00:33.117Z,12.05
2022-09-18T14:03:07.308Z,12.22
2022-09-18T14:05:35.011Z,12.19
2022-09-18T14:08:07.941Z,12.22
2022-09-18T14:10:39.982Z,12.26
2022-09-18T14:13:23.025Z,12.28
2022-09-18T14:16:24.854Z,12.24
2022-09-18T14:19:04.462Z,12.11
2022-09-18T14:21:40.205Z,12.22
2022-09-18T14:24:37.519Z,12.18
2022-09-18T14:27:33.690Z,12.31
2022-09-18T14:30:15.684Z,12.25
2022-09-18T14:33:11.787Z,12.34
2022-09-18T14:35:58.001Z,12.25
2022-09-18T14:38:32.305Z,12.24
2022-09-18T14:41:19.665Z,12.24
2022-09-18T14:43:56.199Z,12.22
2022-09-18T14:46:26.072Z,12.22
2022-09-18T14:48:54.622Z,12.21
2022-09-18T14:51:28.579Z,12.21
2022-09-18T14:53:59.702Z,12.20
2022-09-18T14:56:30.952Z,12.28
2022-09-18T14:59:03.850Z,12.18
2022-09-18T15:01:34.126Z,12.23
2022-09-18T15:04:05.165Z,12.18
2022-09-18T15:06:40.625Z,12.17
2022-09-18T15:09:13.359Z,12.23
2022-09-18T15:12:01.240Z,12.29
2022-09-18T15:14:46.799Z,12.13
2022-09-18T15:17:22.418Z,12.16
2022-09-18T15:20:02.347Z,12.13
2022-09-18T15:22:31.342Z,12.17
2022-09-18T15:25:02.162Z,12.15
2022-09-18T15:27:31.908Z,12.17
2022-09-18T15:29:59.964Z,12.14
2022-09-18T15:32:38.700Z,12.17
2022-09-18T15:35:09.978Z,12.08
2022-09-18T15:37:41.432Z,12.09
2022-09-18T15:40:18.445Z,12.14
2022-09-18T15:42:58.726Z,12.20
2022-09-18T15:45:30.158Z,12.16
2022-09-18T15:48:00.956Z,12.17
2022-09-18T15:50:30.295Z,12.15
2022-09-18T15:52:58.458Z,12.12
2022-09-18T15:55:32.130Z,12.07
2022-09-18T15:58:26.728Z,12.13
2022-09-18T16:00:58.547Z,12.21
2022-09-18T16:03:30.405Z,12.17
2022-09-18T16:06:02.785Z,12.09
2022-09-18T16:08:37.185Z,12.19
2022-09-18T16:11:06.745Z,12.16
2022-09-18T16:13:39.209Z,12.14
2022-09-18T16:16:12.602Z,12.14
2022-09-18T16:18:55.222Z,12.17
2022-09-18T16:21:28.257Z,12.15
2022-09-18T16:24:04.015Z,12.13
2022-09-18T16:26:33.264Z,12.12
2022-09-18T16:29:05.382Z,12.08
2022-09-18T16:31:36.263Z,12.11
2022-09-18T16:34:26.438Z,12.10
2022-09-18T16:36:58.671Z,12.14
2022-09-18T16:39:27.819Z,12.17
2022-09-18T16:41:55.565Z,12.05
2022-09-18T16:44:25.379Z,12.09
2022-09-18T16:46:59.514Z,12.18
2022-09-18T16:49:31.012Z,12.15
2022-09-18T16:51:59.244Z,12.10
2022-09-18T16:54:27.095Z,12.08
2022-09-18T16:56:58.862Z,12.12
2022-09-18T16:59:30.332Z,12.13
2022-09-18T17:02:04.243Z,12.15
2022-09-18T17:04:34.610Z,12.09
2022-09-18T17:07:03.366Z,12.17
2022-09-18T17:09:31.788Z,12.19
2022-09-18T17:12:00.349Z,12.22
2022-09-18T17:14:28.202Z,12.15
2022-09-18T17:16:56.157Z,12.25
2022-09-18T17:19:24.493Z,12.31
2022-09-18T17:21:52.723Z,12.28
2022-09-18T17:24:26.505Z,12.19
2022-09-18T17:26:55.208Z,12.24
2022-09-18T17:29:23.197Z,12.22
2022-09-18T17:31:52.680Z,12.27
2022-09-18T17:34:22.446Z,12.19
2022-09-18T17:36:50.722Z,12.25
2022-09-18T17:39:18.891Z,12.17
2022-09-18T17:41:47.310Z,12.20
2022-09-18T17:44:16.143Z,12.22
2022-09-18T17:46:44.820Z,12.20
2022-09-18T17:49:13.424Z,12.19
2022-09-18T17:51:41.496Z,12.23
2022-09-18T17:54:10.802Z,12.23
2022-09-18T17:56:39.495Z,12.26
2022-09-18T17:59:10.087Z,12.25
2022-09-18T18:01:44.788Z,12.28
2022-09-18T18:04:18.623Z,12.32
2022-09-18T18:06:49.015Z,12.26
2022-09-18T18:09:17.565Z,12.29
2022-09-18T18:11:46.601Z,12.26
2022-09-18T18:14:15.095Z,12.27
2022-09-18T18:16:43.813Z,12.31
2022-09-18T18:19:15.842Z,12.34
2022-09-18T18:21:44.598Z,12.34
2022-09-18T18:24:15.771Z,12.35
2022-09-18T18:26:46.208Z,12.35
2022-09-18T18:29:18.319Z,12.35
2022-09-18T18:31:49.529Z,12.31
2022-09-18T18:34:22.692Z,12.28
2022-09-18T18:36:51.308Z,12.34
2022-09-18T18:39:20.382Z,12.29
2022-09-18T18:41:50.120Z,12.36
2022-09-18T18:44:18.919Z,12.38
2022-09-18T18:46:46.877Z,12.32
2022-09-18T18:49:17.006Z,12.30
2022-09-18T18:51:49.210Z,12.30
2022-09-18T18:54:19.453Z,12.38
2022-09-18T18:56:49.299Z,12.36
2022-09-18T18:59:19.720Z,12.35
2022-09-18T19:01:48.270Z,12.37
2022-09-18T19:04:19.568Z,12.36
2022-09-18T19:06:49.476Z,12.35
2022-09-18T19:09:22.117Z,12.34
2022-09-18T19:11:52.089Z,12.32
2022-09-18T19:14:30.042Z,12.37
2022-09-18T19:16:58.585Z,12.41
2022-09-18T19:19:28.653Z,12.43
2022-09-18T19:22:02.348Z,12.42
2022-09-18T19:24:30.846Z,12.43
2022-09-18T19:26:59.372Z,12.39
2022-09-18T19:29:28.650Z,12.44
2022-09-18T19:31:57.939Z,12.47
2022-09-18T19:34:25.707Z,12.47
2022-09-18T19:36:54.012Z,12.47
2022-09-18T19:39:24.284Z,12.51
2022-09-18T19:41:59.502Z,12.46
2022-09-18T19:44:54.309Z,12.47
2022-09-18T19:47:41.319Z,12.48
2022-09-18T19:50:23.221Z,12.46
2022-09-18T19:52:51.592Z,12.45
2022-09-18T19:55:21.126Z,12.45
2022-09-18T19:57:50.358Z,12.45
2022-09-18T20:05:09.940Z,12.54
2022-09-18T20:07:38.799Z,12.44
2022-09-18T20:10:12.780Z,12.47
2022-09-18T20:12:42.859Z,12.46
2022-09-18T20:15:11.572Z,12.47
2022-09-18T20:17:39.565Z,12.48
2022-09-18T20:20:09.020Z,12.50
2022-09-18T20:22:39.999Z,12.51
2022-09-18T20:25:09.332Z,12.54
2022-09-18T20:27:40.878Z,12.55
2022-09-18T20:30:12.800Z,12.53
2022-09-18T20:32:41.445Z,12.55
2022-09-18T20:35:10.253Z,12.56
2022-09-18T20:37:37.992Z,12.50
2022-09-18T20:40:10.592Z,12.58
2022-09-18T20:42:38.635Z,12.53
2022-09-18T20:45:07.639Z,12.53
2022-09-18T20:47:37.234Z,12.54
2022-09-18T20:50:10.862Z,12.48
2022-09-18T20:52:43.302Z,12.49
2022-09-18T20:55:17.677Z,12.62
2022-09-18T20:57:46.683Z,12.50
2022-09-18T21:00:25.166Z,12.50
2022-09-18T21:02:53.656Z,12.50
2022-09-18T21:05:22.334Z,12.50
2022-09-18T21:07:57.621Z,12.53
2022-09-18T21:10:25.662Z,12.43
2022-09-18T21:12:53.355Z,12.51
2022-09-18T21:15:21.135Z,12.39
2022-09-18T21:17:49.968Z,12.38
2022-09-18T21:20:17.744Z,12.45
